sensor_id;sensor_type;location;lat;lon;timestamp;P1;durP1;ratioP1;P2;durP2;ratioP2
64225;SDS011;50545;56.064;26.178;2024-01-06T00:01:11;7.07;;;3.53;;
64225;SDS011;50545;56.064;26.178;2024-01-06T00:03:42;7.22;;;3.78;;
64225;SDS011;50545;56.064;26.178;2024-01-06T00:06:13;6.35;;;3.03;;
64225;SDS011;50545;56.064;26.178;2024-01-06T00:08:42;7.18;;;3.50;;
64225;SDS011;50545;56.064;26.178;2024-01-06T00:11:09;6.72;;;3.38;;
64225;SDS011;50545;56.064;26.178;2024-01-06T00:13:37;6.60;;;3.50;;
64225;SDS011;50545;56.064;26.178;2024-01-06T00:16:04;5.55;;;2.85;;
64225;SDS011;50545;56.064;26.178;2024-01-06T00:18:32;6.13;;;2.90;;
64225;SDS011;50545;56.064;26.178;2024-01-06T00:21:00;9.30;;;4.32;;
64225;SDS011;50545;56.064;26.178;2024-01-06T00:23:27;8.27;;;4.25;;
64225;SDS011;50545;56.064;26.178;2024-01-06T00:25:54;9.65;;;3.67;;
64225;SDS011;50545;56.064;26.178;2024-01-06T00:28:22;6.55;;;3.30;;
64225;SDS011;50545;56.064;26.178;2024-01-06T00:30:50;8.38;;;3.63;;
64225;SDS011;50545;56.064;26.178;2024-01-06T00:33:17;7.55;;;3.60;;
64225;SDS011;50545;56.064;26.178;2024-01-06T00:35:45;7.63;;;3.30;;
64225;SDS011;50545;56.064;26.178;2024-01-06T00:38:12;9.85;;;4.53;;
64225;SDS011;50545;56.064;26.178;2024-01-06T00:40:40;8.02;;;3.33;;
64225;SDS011;50545;56.064;26.178;2024-01-06T00:43:07;7.28;;;3.17;;
64225;SDS011;50545;56.064;26.178;2024-01-06T00:45:34;7.10;;;3.67;;
64225;SDS011;50545;56.064;26.178;2024-01-06T00:48:02;7.93;;;3.67;;
64225;SDS011;50545;56.064;26.178;2024-01-06T00:50:30;9.05;;;4.05;;
64225;SDS011;50545;56.064;26.178;2024-01-06T00:52:57;6.28;;;3.13;;
64225;SDS011;50545;56.064;26.178;2024-01-06T00:55:25;8.23;;;3.70;;
64225;SDS011;50545;56.064;26.178;2024-01-06T00:57:52;7.60;;;3.60;;
64225;SDS011;50545;56.064;26.178;2024-01-06T01:00:20;5.47;;;3.17;;
64225;SDS011;50545;56.064;26.178;2024-01-06T01:02:47;6.65;;;3.17;;
64225;SDS011;50545;56.064;26.178;2024-01-06T01:05:15;8.00;;;3.75;;
64225;SDS011;50545;56.064;26.178;2024-01-06T01:07:42;7.43;;;3.92;;
64225;SDS011;50545;56.064;26.178;2024-01-06T01:10:10;7.40;;;3.38;;
64225;SDS011;50545;56.064;26.178;2024-01-06T01:12:37;7.38;;;3.50;;
64225;SDS011;50545;56.064;26.178;2024-01-06T01:15:06;5.22;;;2.33;;
64225;SDS011;50545;56.064;26.178;2024-01-06T01:17:34;6.13;;;3.20;;
64225;SDS011;50545;56.064;26.178;2024-01-06T01:20:01;6.85;;;3.33;;
64225;SDS011;50545;56.064;26.178;2024-01-06T01:22:29;6.82;;;3.30;;
64225;SDS011;50545;56.064;26.178;2024-01-06T01:24:56;6.28;;;3.17;;
64225;SDS011;50545;56.064;26.178;2024-01-06T01:27:24;7.80;;;3.03;;
64225;SDS011;50545;56.064;26.178;2024-01-06T01:29:52;8.50;;;2.75;;
64225;SDS011;50545;56.064;26.178;2024-01-06T01:32:21;7.78;;;3.58;;
64225;SDS011;50545;56.064;26.178;2024-01-06T01:34:49;7.47;;;3.83;;
64225;SDS011;50545;56.064;26.178;2024-01-06T01:37:17;8.80;;;3.83;;
64225;SDS011;50545;56.064;26.178;2024-01-06T01:39:44;6.53;;;3.30;;
64225;SDS011;50545;56.064;26.178;2024-01-06T01:42:12;6.88;;;3.15;;
64225;SDS011;50545;56.064;26.178;2024-01-06T01:44:40;5.47;;;2.80;;
64225;SDS011;50545;56.064;26.178;2024-01-06T01:47:07;6.15;;;2.92;;
64225;SDS011;50545;56.064;26.178;2024-01-06T01:49:35;5.72;;;2.83;;
64225;SDS011;50545;56.064;26.178;2024-01-06T01:52:03;6.15;;;2.78;;
64225;SDS011;50545;56.064;26.178;2024-01-06T01:54:30;5.60;;;2.47;;
64225;SDS011;50545;56.064;26.178;2024-01-06T01:56:58;7.32;;;3.33;;
64225;SDS011;50545;56.064;26.178;2024-01-06T01:59:25;6.50;;;2.83;;
64225;SDS011;50545;56.064;26.178;2024-01-06T02:01:55;6.78;;;3.05;;
64225;SDS011;50545;56.064;26.178;2024-01-06T02:04:23;6.57;;;3.00;;
64225;SDS011;50545;56.064;26.178;2024-01-06T02:06:50;5.32;;;2.70;;
64225;SDS011;50545;56.064;26.178;2024-01-06T02:09:17;4.13;;;2.40;;
64225;SDS011;50545;56.064;26.178;2024-01-06T02:11:45;5.50;;;3.05;;
64225;SDS011;50545;56.064;26.178;2024-01-06T02:14:12;5.40;;;2.63;;
64225;SDS011;50545;56.064;26.178;2024-01-06T02:16:40;4.82;;;2.50;;
64225;SDS011;50545;56.064;26.178;2024-01-06T02:19:07;5.40;;;2.45;;
64225;SDS011;50545;56.064;26.178;2024-01-06T02:21:41;6.35;;;2.90;;
64225;SDS011;50545;56.064;26.178;2024-01-06T02:24:10;5.90;;;2.88;;
64225;SDS011;50545;56.064;26.178;2024-01-06T02:26:37;5.03;;;2.33;;
64225;SDS011;50545;56.064;26.178;2024-01-06T02:29:05;7.80;;;3.63;;
64225;SDS011;50545;56.064;26.178;2024-01-06T02:31:32;5.20;;;2.67;;
64225;SDS011;50545;56.064;26.178;2024-01-06T02:34:00;5.38;;;2.75;;
64225;SDS011;50545;56.064;26.178;2024-01-06T02:36:28;6.63;;;2.83;;
64225;SDS011;50545;56.064;26.178;2024-01-06T02:38:55;7.03;;;2.70;;
64225;SDS011;50545;56.064;26.178;2024-01-06T02:41:22;5.18;;;2.47;;
64225;SDS011;50545;56.064;26.178;2024-01-06T02:43:50;5.88;;;2.47;;
64225;SDS011;50545;56.064;26.178;2024-01-06T02:46:17;5.05;;;2.20;;
64225;SDS011;50545;56.064;26.178;2024-01-06T02:48:45;2.63;;;1.85;;
64225;SDS011;50545;56.064;26.178;2024-01-06T02:51:12;6.50;;;2.63;;
64225;SDS011;50545;56.064;26.178;2024-01-06T02:53:40;4.78;;;2.33;;
64225;SDS011;50545;56.064;26.178;2024-01-06T02:56:11;6.30;;;2.40;;
64225;SDS011;50545;56.064;26.178;2024-01-06T02:58:39;6.30;;;2.92;;
64225;SDS011;50545;56.064;26.178;2024-01-06T03:01:06;5.63;;;2.50;;
64225;SDS011;50545;56.064;26.178;2024-01-06T03:03:35;7.45;;;2.40;;
64225;SDS011;50545;56.064;26.178;2024-01-06T03:06:03;4.57;;;2.55;;
64225;SDS011;50545;56.064;26.178;2024-01-06T03:08:30;7.35;;;2.63;;
64225;SDS011;50545;56.064;26.178;2024-01-06T03:10:58;8.43;;;3.22;;
64225;SDS011;50545;56.064;26.178;2024-01-06T03:13:25;6.38;;;2.88;;
64225;SDS011;50545;56.064;26.178;2024-01-06T03:15:53;8.80;;;2.78;;
64225;SDS011;50545;56.064;26.178;2024-01-06T03:18:21;4.53;;;2.38;;
64225;SDS011;50545;56.064;26.178;2024-01-06T03:20:49;4.85;;;2.70;;
64225;SDS011;50545;56.064;26.178;2024-01-06T03:23:16;3.30;;;1.75;;
64225;SDS011;50545;56.064;26.178;2024-01-06T03:25:43;3.58;;;2.10;;
64225;SDS011;50545;56.064;26.178;2024-01-06T03:28:11;4.47;;;2.28;;
64225;SDS011;50545;56.064;26.178;2024-01-06T03:30:38;3.03;;;1.95;;
64225;SDS011;50545;56.064;26.178;2024-01-06T03:33:06;3.90;;;2.30;;
64225;SDS011;50545;56.064;26.178;2024-01-06T03:35:34;2.10;;;1.55;;
64225;SDS011;50545;56.064;26.178;2024-01-06T03:38:01;1.95;;;1.40;;
64225;SDS011;50545;56.064;26.178;2024-01-06T03:40:29;3.65;;;2.15;;
64225;SDS011;50545;56.064;26.178;2024-01-06T03:42:57;4.28;;;2.05;;
64225;SDS011;50545;56.064;26.178;2024-01-06T03:45:24;4.50;;;2.03;;
64225;SDS011;50545;56.064;26.178;2024-01-06T03:47:52;4.50;;;2.40;;
64225;SDS011;50545;56.064;26.178;2024-01-06T03:50:19;4.32;;;2.08;;
64225;SDS011;50545;56.064;26.178;2024-01-06T03:52:47;5.50;;;2.40;;
64225;SDS011;50545;56.064;26.178;2024-01-06T03:55:15;3.35;;;1.90;;
64225;SDS011;50545;56.064;26.178;2024-01-06T03:57:43;4.35;;;2.20;;
64225;SDS011;50545;56.064;26.178;2024-01-06T04:00:10;5.13;;;2.22;;
64225;SDS011;50545;56.064;26.178;2024-01-06T04:02:38;7.38;;;2.30;;
64225;SDS011;50545;56.064;26.178;2024-01-06T04:05:05;6.07;;;2.38;;
64225;SDS011;50545;56.064;26.178;2024-01-06T04:07:33;4.60;;;2.53;;
64225;SDS011;50545;56.064;26.178;2024-01-06T04:10:00;5.80;;;2.50;;
64225;SDS011;50545;56.064;26.178;2024-01-06T04:12:28;4.55;;;2.20;;
64225;SDS011;50545;56.064;26.178;2024-01-06T04:14:55;3.88;;;1.98;;
64225;SDS011;50545;56.064;26.178;2024-01-06T04:17:22;4.10;;;2.10;;
64225;SDS011;50545;56.064;26.178;2024-01-06T04:19:50;3.90;;;2.17;;
64225;SDS011;50545;56.064;26.178;2024-01-06T04:22:17;4.15;;;2.35;;
64225;SDS011;50545;56.064;26.178;2024-01-06T04:24:45;5.97;;;2.65;;
64225;SDS011;50545;56.064;26.178;2024-01-06T04:27:12;3.50;;;2.17;;
64225;SDS011;50545;56.064;26.178;2024-01-06T04:29:40;4.68;;;2.17;;
64225;SDS011;50545;56.064;26.178;2024-01-06T04:32:07;3.05;;;2.00;;
64225;SDS011;50545;56.064;26.178;2024-01-06T04:34:35;4.15;;;1.95;;
64225;SDS011;50545;56.064;26.178;2024-01-06T04:37:02;4.78;;;2.33;;
64225;SDS011;50545;56.064;26.178;2024-01-06T04:39:30;6.03;;;2.75;;
64225;SDS011;50545;56.064;26.178;2024-01-06T04:42:02;4.85;;;1.98;;
64225;SDS011;50545;56.064;26.178;2024-01-06T04:44:31;4.13;;;1.83;;
64225;SDS011;50545;56.064;26.178;2024-01-06T04:46:58;6.18;;;2.80;;
64225;SDS011;50545;56.064;26.178;2024-01-06T04:49:25;3.97;;;1.85;;
64225;SDS011;50545;56.064;26.178;2024-01-06T04:51:53;5.47;;;2.72;;
64225;SDS011;50545;56.064;26.178;2024-01-06T04:54:21;5.07;;;2.78;;
64225;SDS011;50545;56.064;26.178;2024-01-06T04:56:48;5.05;;;2.90;;
64225;SDS011;50545;56.064;26.178;2024-01-06T04:59:15;5.20;;;2.15;;
64225;SDS011;50545;56.064;26.178;2024-01-06T05:01:43;5.25;;;2.65;;
64225;SDS011;50545;56.064;26.178;2024-01-06T05:04:11;5.20;;;2.60;;
64225;SDS011;50545;56.064;26.178;2024-01-06T05:06:38;4.03;;;2.20;;
64225;SDS011;50545;56.064;26.178;2024-01-06T05:09:06;4.68;;;2.45;;
64225;SDS011;50545;56.064;26.178;2024-01-06T05:11:33;5.88;;;2.50;;
64225;SDS011;50545;56.064;26.178;2024-01-06T05:14:02;5.10;;;2.88;;
64225;SDS011;50545;56.064;26.178;2024-01-06T05:16:31;4.15;;;2.38;;
64225;SDS011;50545;56.064;26.178;2024-01-06T05:18:58;5.53;;;2.75;;
64225;SDS011;50545;56.064;26.178;2024-01-06T05:21:26;4.55;;;2.40;;
64225;SDS011;50545;56.064;26.178;2024-01-06T05:23:54;5.60;;;2.22;;
64225;SDS011;50545;56.064;26.178;2024-01-06T05:26:21;4.05;;;1.95;;
64225;SDS011;50545;56.064;26.178;2024-01-06T05:28:49;4.93;;;2.28;;
64225;SDS011;50545;56.064;26.178;2024-01-06T05:31:16;4.35;;;2.28;;
64225;SDS011;50545;56.064;26.178;2024-01-06T05:33:44;4.70;;;2.53;;
64225;SDS011;50545;56.064;26.178;2024-01-06T05:36:11;5.28;;;2.33;;
64225;SDS011;50545;56.064;26.178;2024-01-06T05:38:39;4.03;;;2.40;;
64225;SDS011;50545;56.064;26.178;2024-01-06T05:41:06;2.67;;;1.77;;
64225;SDS011;50545;56.064;26.178;2024-01-06T05:43:34;6.10;;;2.60;;
64225;SDS011;50545;56.064;26.178;2024-01-06T05:46:01;4.28;;;2.30;;
64225;SDS011;50545;56.064;26.178;2024-01-06T05:48:29;4.32;;;2.10;;
64225;SDS011;50545;56.064;26.178;2024-01-06T05:50:57;4.30;;;2.30;;
64225;SDS011;50545;56.064;26.178;2024-01-06T05:53:24;3.50;;;2.13;;
64225;SDS011;50545;56.064;26.178;2024-01-06T05:55:52;2.35;;;1.73;;
64225;SDS011;50545;56.064;26.178;2024-01-06T05:58:19;5.72;;;2.20;;
64225;SDS011;50545;56.064;26.178;2024-01-06T06:00:46;2.97;;;1.80;;
64225;SDS011;50545;56.064;26.178;2024-01-06T06:03:15;3.80;;;1.92;;
64225;SDS011;50545;56.064;26.178;2024-01-06T06:05:42;7.15;;;2.40;;
64225;SDS011;50545;56.064;26.178;2024-01-06T06:08:11;3.40;;;1.83;;
64225;SDS011;50545;56.064;26.178;2024-01-06T06:10:39;2.65;;;2.15;;
64225;SDS011;50545;56.064;26.178;2024-01-06T06:13:27;4.28;;;2.22;;
64225;SDS011;50545;56.064;26.178;2024-01-06T06:15:55;6.88;;;2.85;;
64225;SDS011;50545;56.064;26.178;2024-01-06T06:18:23;6.72;;;3.05;;
64225;SDS011;50545;56.064;26.178;2024-01-06T06:20:50;7.90;;;3.40;;
64225;SDS011;50545;56.064;26.178;2024-01-06T06:23:17;5.40;;;3.10;;
64225;SDS011;50545;56.064;26.178;2024-01-06T06:25:45;7.55;;;3.13;;
64225;SDS011;50545;56.064;26.178;2024-01-06T06:28:12;4.05;;;2.53;;
64225;SDS011;50545;56.064;26.178;2024-01-06T06:30:40;3.88;;;2.22;;
64225;SDS011;50545;56.064;26.178;2024-01-06T06:33:07;4.88;;;2.13;;
64225;SDS011;50545;56.064;26.178;2024-01-06T06:35:35;5.78;;;2.65;;
64225;SDS011;50545;56.064;26.178;2024-01-06T06:38:02;3.50;;;2.13;;
64225;SDS011;50545;56.064;26.178;2024-01-06T06:40:30;4.35;;;2.58;;
64225;SDS011;50545;56.064;26.178;2024-01-06T06:42:57;3.15;;;1.98;;
64225;SDS011;50545;56.064;26.178;2024-01-06T06:45:25;4.30;;;2.22;;
64225;SDS011;50545;56.064;26.178;2024-01-06T06:47:52;2.53;;;1.73;;
64225;SDS011;50545;56.064;26.178;2024-01-06T06:50:19;3.63;;;2.00;;
64225;SDS011;50545;56.064;26.178;2024-01-06T06:52:47;3.67;;;2.10;;
64225;SDS011;50545;56.064;26.178;2024-01-06T06:55:15;3.72;;;2.22;;
64225;SDS011;50545;56.064;26.178;2024-01-06T06:57:42;4.72;;;2.25;;
64225;SDS011;50545;56.064;26.178;2024-01-06T07:00:10;4.05;;;2.30;;
64225;SDS011;50545;56.064;26.178;2024-01-06T07:02:38;3.80;;;2.25;;
64225;SDS011;50545;56.064;26.178;2024-01-06T07:05:06;4.20;;;2.08;;
64225;SDS011;50545;56.064;26.178;2024-01-06T07:07:34;3.97;;;2.10;;
64225;SDS011;50545;56.064;26.178;2024-01-06T07:10:01;3.42;;;2.03;;
64225;SDS011;50545;56.064;26.178;2024-01-06T07:12:31;1.15;;;1.05;;
64225;SDS011;50545;56.064;26.178;2024-01-06T07:14:59;2.65;;;1.77;;
64225;SDS011;50545;56.064;26.178;2024-01-06T07:17:29;2.15;;;1.42;;
64225;SDS011;50545;56.064;26.178;2024-01-06T07:19:57;2.28;;;1.70;;
64225;SDS011;50545;56.064;26.178;2024-01-06T07:22:24;1.73;;;1.55;;
64225;SDS011;50545;56.064;26.178;2024-01-06T07:24:52;1.63;;;1.50;;
64225;SDS011;50545;56.064;26.178;2024-01-06T07:27:19;2.85;;;1.77;;
64225;SDS011;50545;56.064;26.178;2024-01-06T07:29:47;3.17;;;2.03;;
64225;SDS011;50545;56.064;26.178;2024-01-06T07:32:15;4.00;;;2.10;;
64225;SDS011;50545;56.064;26.178;2024-01-06T07:34:42;3.03;;;1.85;;
64225;SDS011;50545;56.064;26.178;2024-01-06T07:37:10;2.70;;;1.67;;
64225;SDS011;50545;56.064;26.178;2024-01-06T07:39:38;2.15;;;1.45;;
64225;SDS011;50545;56.064;26.178;2024-01-06T07:42:05;4.40;;;1.98;;
64225;SDS011;50545;56.064;26.178;2024-01-06T07:44:33;1.55;;;1.20;;
64225;SDS011;50545;56.064;26.178;2024-01-06T07:47:00;2.72;;;1.80;;
64225;SDS011;50545;56.064;26.178;2024-01-06T07:49:28;1.83;;;1.52;;
64225;SDS011;50545;56.064;26.178;2024-01-06T07:51:56;2.35;;;1.63;;
64225;SDS011;50545;56.064;26.178;2024-01-06T07:54:24;1.83;;;1.63;;
64225;SDS011;50545;56.064;26.178;2024-01-06T07:56:51;2.58;;;1.77;;
64225;SDS011;50545;56.064;26.178;2024-01-06T07:59:18;2.10;;;1.60;;
64225;SDS011;50545;56.064;26.178;2024-01-06T08:01:46;2.78;;;1.63;;
64225;SDS011;50545;56.064;26.178;2024-01-06T08:04:14;2.13;;;1.45;;
64225;SDS011;50545;56.064;26.178;2024-01-06T08:06:41;2.47;;;1.25;;
64225;SDS011;50545;56.064;26.178;2024-01-06T08:09:09;2.05;;;1.60;;
64225;SDS011;50545;56.064;26.178;2024-01-06T08:11:36;3.90;;;2.00;;
64225;SDS011;50545;56.064;26.178;2024-01-06T08:14:04;3.08;;;1.50;;
64225;SDS011;50545;56.064;26.178;2024-01-06T08:16:31;3.25;;;1.77;;
64225;SDS011;50545;56.064;26.178;2024-01-06T08:18:59;3.20;;;2.00;;
64225;SDS011;50545;56.064;26.178;2024-01-06T08:21:26;2.50;;;1.70;;
64225;SDS011;50545;56.064;26.178;2024-01-06T08:23:54;2.53;;;1.60;;
64225;SDS011;50545;56.064;26.178;2024-01-06T08:26:22;2.35;;;1.52;;
64225;SDS011;50545;56.064;26.178;2024-01-06T08:28:50;2.40;;;1.33;;
64225;SDS011;50545;56.064;26.178;2024-01-06T08:31:18;2.08;;;1.73;;
64225;SDS011;50545;56.064;26.178;2024-01-06T08:33:45;2.15;;;1.70;;
64225;SDS011;50545;56.064;26.178;2024-01-06T08:36:13;3.22;;;1.98;;
64225;SDS011;50545;56.064;26.178;2024-01-06T08:38:41;5.82;;;2.55;;
64225;SDS011;50545;56.064;26.178;2024-01-06T08:41:08;2.50;;;1.70;;
64225;SDS011;50545;56.064;26.178;2024-01-06T08:43:36;2.97;;;1.50;;
64225;SDS011;50545;56.064;26.178;2024-01-06T08:46:03;2.63;;;1.73;;
64225;SDS011;50545;56.064;26.178;2024-01-06T08:48:32;4.22;;;1.98;;
64225;SDS011;50545;56.064;26.178;2024-01-06T08:51:01;3.28;;;1.63;;
64225;SDS011;50545;56.064;26.178;2024-01-06T08:53:29;3.22;;;1.83;;
64225;SDS011;50545;56.064;26.178;2024-01-06T08:55:56;3.63;;;1.58;;
64225;SDS011;50545;56.064;26.178;2024-01-06T08:58:24;1.67;;;1.58;;
64225;SDS011;50545;56.064;26.178;2024-01-06T09:00:51;2.90;;;1.98;;
64225;SDS011;50545;56.064;26.178;2024-01-06T09:03:20;4.85;;;2.00;;
64225;SDS011;50545;56.064;26.178;2024-01-06T09:05:54;3.60;;;1.77;;
64225;SDS011;50545;56.064;26.178;2024-01-06T09:08:23;2.70;;;1.75;;
64225;SDS011;50545;56.064;26.178;2024-01-06T09:10:51;2.75;;;1.80;;
64225;SDS011;50545;56.064;26.178;2024-01-06T09:13:22;2.78;;;1.48;;
64225;SDS011;50545;56.064;26.178;2024-01-06T09:15:51;3.67;;;2.22;;
64225;SDS011;50545;56.064;26.178;2024-01-06T09:18:18;2.50;;;1.63;;
64225;SDS011;50545;56.064;26.178;2024-01-06T09:20:46;4.57;;;2.15;;
64225;SDS011;50545;56.064;26.178;2024-01-06T09:25:47;2.45;;;1.73;;
64225;SDS011;50545;56.064;26.178;2024-01-06T09:28:19;3.72;;;1.90;;
64225;SDS011;50545;56.064;26.178;2024-01-06T09:30:48;4.53;;;1.83;;
64225;SDS011;50545;56.064;26.178;2024-01-06T09:33:15;2.28;;;1.38;;
64225;SDS011;50545;56.064;26.178;2024-01-06T09:35:44;3.42;;;1.90;;
64225;SDS011;50545;56.064;26.178;2024-01-06T09:38:12;4.10;;;2.38;;
64225;SDS011;50545;56.064;26.178;2024-01-06T09:40:43;2.15;;;1.80;;
64225;SDS011;50545;56.064;26.178;2024-01-06T09:43:11;1.98;;;1.52;;
64225;SDS011;50545;56.064;26.178;2024-01-06T09:45:39;2.47;;;1.52;;
64225;SDS011;50545;56.064;26.178;2024-01-06T09:48:13;2.67;;;1.70;;
64225;SDS011;50545;56.064;26.178;2024-01-06T09:50:42;3.67;;;2.25;;
64225;SDS011;50545;56.064;26.178;2024-01-06T09:53:11;3.72;;;2.10;;
64225;SDS011;50545;56.064;26.178;2024-01-06T09:55:39;6.07;;;2.10;;
64225;SDS011;50545;56.064;26.178;2024-01-06T09:58:07;4.28;;;2.67;;
64225;SDS011;50545;56.064;26.178;2024-01-06T10:00:37;3.60;;;2.17;;
64225;SDS011;50545;56.064;26.178;2024-01-06T10:03:04;3.75;;;2.08;;
64225;SDS011;50545;56.064;26.178;2024-01-06T10:05:34;1.70;;;1.50;;
64225;SDS011;50545;56.064;26.178;2024-01-06T10:08:02;4.03;;;2.38;;
64225;SDS011;50545;56.064;26.178;2024-01-06T10:10:31;4.13;;;2.10;;
64225;SDS011;50545;56.064;26.178;2024-01-06T10:13:01;4.82;;;2.35;;
64225;SDS011;50545;56.064;26.178;2024-01-06T10:15:28;4.47;;;2.38;;
64225;SDS011;50545;56.064;26.178;2024-01-06T10:17:56;3.78;;;2.15;;
64225;SDS011;50545;56.064;26.178;2024-01-06T10:20:25;5.80;;;2.30;;
64225;SDS011;50545;56.064;26.178;2024-01-06T10:22:53;4.22;;;2.33;;
64225;SDS011;50545;56.064;26.178;2024-01-06T10:25:22;3.05;;;1.67;;
64225;SDS011;50545;56.064;26.178;2024-01-06T10:27:52;3.80;;;2.17;;
64225;SDS011;50545;56.064;26.178;2024-01-06T10:30:20;4.18;;;2.47;;
64225;SDS011;50545;56.064;26.178;2024-01-06T10:32:49;2.80;;;1.65;;
64225;SDS011;50545;56.064;26.178;2024-01-06T10:35:17;2.75;;;1.63;;
64225;SDS011;50545;56.064;26.178;2024-01-06T10:37:45;2.88;;;2.30;;
64225;SDS011;50545;56.064;26.178;2024-01-06T10:40:15;3.58;;;2.35;;
64225;SDS011;50545;56.064;26.178;2024-01-06T10:42:43;5.75;;;1.67;;
64225;SDS011;50545;56.064;26.178;2024-01-06T10:45:12;4.05;;;2.00;;
64225;SDS011;50545;56.064;26.178;2024-01-06T10:47:41;3.78;;;2.40;;
64225;SDS011;50545;56.064;26.178;2024-01-06T10:50:10;2.28;;;1.98;;
64225;SDS011;50545;56.064;26.178;2024-01-06T10:52:38;5.72;;;2.63;;
64225;SDS011;50545;56.064;26.178;2024-01-06T10:55:06;3.22;;;2.30;;
64225;SDS011;50545;56.064;26.178;2024-01-06T10:57:34;2.53;;;1.73;;
64225;SDS011;50545;56.064;26.178;2024-01-06T11:00:04;3.50;;;2.20;;
64225;SDS011;50545;56.064;26.178;2024-01-06T11:02:33;2.72;;;1.85;;
64225;SDS011;50545;56.064;26.178;2024-01-06T11:05:02;2.78;;;1.67;;
64225;SDS011;50545;56.064;26.178;2024-01-06T11:07:30;4.88;;;2.28;;
64225;SDS011;50545;56.064;26.178;2024-01-06T11:10:00;3.42;;;1.60;;
64225;SDS011;50545;56.064;26.178;2024-01-06T11:12:32;6.22;;;2.63;;
64225;SDS011;50545;56.064;26.178;2024-01-06T11:15:00;4.60;;;2.40;;
64225;SDS011;50545;56.064;26.178;2024-01-06T11:20:21;6.22;;;3.03;;
64225;SDS011;50545;56.064;26.178;2024-01-06T11:22:53;4.80;;;2.80;;
64225;SDS011;50545;56.064;26.178;2024-01-06T11:25:21;4.72;;;2.38;;
64225;SDS011;50545;56.064;26.178;2024-01-06T11:27:49;8.45;;;3.58;;
64225;SDS011;50545;56.064;26.178;2024-01-06T11:30:21;6.32;;;2.70;;
64225;SDS011;50545;56.064;26.178;2024-01-06T11:32:53;3.97;;;2.65;;
64225;SDS011;50545;56.064;26.178;2024-01-06T11:35:28;5.93;;;3.05;;
64225;SDS011;50545;56.064;26.178;2024-01-06T11:38:00;7.13;;;3.08;;
64225;SDS011;50545;56.064;26.178;2024-01-06T11:40:31;6.10;;;2.67;;
64225;SDS011;50545;56.064;26.178;2024-01-06T11:43:10;6.65;;;3.00;;
64225;SDS011;50545;56.064;26.178;2024-01-06T11:45:40;4.82;;;2.95;;
64225;SDS011;50545;56.064;26.178;2024-01-06T11:48:10;5.13;;;2.88;;
64225;SDS011;50545;56.064;26.178;2024-01-06T11:50:41;4.93;;;2.08;;
64225;SDS011;50545;56.064;26.178;2024-01-06T11:53:08;3.72;;;1.95;;
64225;SDS011;50545;56.064;26.178;2024-01-06T11:55:39;3.80;;;2.05;;
64225;SDS011;50545;56.064;26.178;2024-01-06T11:58:06;2.42;;;1.65;;
64225;SDS011;50545;56.064;26.178;2024-01-06T12:00:34;3.78;;;2.28;;
64225;SDS011;50545;56.064;26.178;2024-01-06T12:03:07;4.75;;;2.20;;
64225;SDS011;50545;56.064;26.178;2024-01-06T12:05:35;5.07;;;1.85;;
64225;SDS011;50545;56.064;26.178;2024-01-06T12:08:03;3.83;;;2.33;;
64225;SDS011;50545;56.064;26.178;2024-01-06T12:10:34;6.13;;;2.65;;
64225;SDS011;50545;56.064;26.178;2024-01-06T12:13:07;3.90;;;2.22;;
64225;SDS011;50545;56.064;26.178;2024-01-06T12:15:40;7.32;;;2.45;;
64225;SDS011;50545;56.064;26.178;2024-01-06T12:18:08;3.92;;;2.17;;
64225;SDS011;50545;56.064;26.178;2024-01-06T12:20:36;4.53;;;2.72;;
64225;SDS011;50545;56.064;26.178;2024-01-06T12:23:03;7.53;;;3.90;;
64225;SDS011;50545;56.064;26.178;2024-01-06T12:25:34;15.98;;;7.95;;
64225;SDS011;50545;56.064;26.178;2024-01-06T12:28:06;11.57;;;4.90;;
64225;SDS011;50545;56.064;26.178;2024-01-06T12:30:35;4.82;;;2.83;;
64225;SDS011;50545;56.064;26.178;2024-01-06T12:33:03;6.45;;;2.97;;
64225;SDS011;50545;56.064;26.178;2024-01-06T12:35:31;7.60;;;4.55;;
64225;SDS011;50545;56.064;26.178;2024-01-06T12:37:59;25.48;;;10.48;;
64225;SDS011;50545;56.064;26.178;2024-01-06T12:40:28;18.27;;;7.68;;
64225;SDS011;50545;56.064;26.178;2024-01-06T12:42:56;10.68;;;5.13;;
64225;SDS011;50545;56.064;26.178;2024-01-06T12:45:23;6.18;;;3.38;;
64225;SDS011;50545;56.064;26.178;2024-01-06T12:47:51;4.85;;;2.40;;
64225;SDS011;50545;56.064;26.178;2024-01-06T12:50:18;4.80;;;2.53;;
64225;SDS011;50545;56.064;26.178;2024-01-06T12:52:46;7.68;;;2.88;;
64225;SDS011;50545;56.064;26.178;2024-01-06T12:55:15;4.68;;;2.50;;
64225;SDS011;50545;56.064;26.178;2024-01-06T12:57:43;7.50;;;3.13;;
64225;SDS011;50545;56.064;26.178;2024-01-06T13:00:11;6.60;;;3.70;;
64225;SDS011;50545;56.064;26.178;2024-01-06T13:02:40;13.75;;;6.45;;
64225;SDS011;50545;56.064;26.178;2024-01-06T13:05:07;11.60;;;5.05;;
64225;SDS011;50545;56.064;26.178;2024-01-06T13:07:36;5.63;;;2.90;;
64225;SDS011;50545;56.064;26.178;2024-01-06T13:10:03;7.00;;;3.60;;
64225;SDS011;50545;56.064;26.178;2024-01-06T13:12:32;7.93;;;3.47;;
64225;SDS011;50545;56.064;26.178;2024-01-06T13:14:59;5.80;;;3.08;;
64225;SDS011;50545;56.064;26.178;2024-01-06T13:17:27;6.82;;;3.20;;
64225;SDS011;50545;56.064;26.178;2024-01-06T13:19:55;7.05;;;3.03;;
64225;SDS011;50545;56.064;26.178;2024-01-06T13:22:23;6.40;;;3.38;;
64225;SDS011;50545;56.064;26.178;2024-01-06T13:24:52;5.97;;;3.00;;
64225;SDS011;50545;56.064;26.178;2024-01-06T13:27:20;5.00;;;2.72;;
64225;SDS011;50545;56.064;26.178;2024-01-06T13:29:47;6.03;;;2.80;;
64225;SDS011;50545;56.064;26.178;2024-01-06T13:32:15;5.55;;;3.03;;
64225;SDS011;50545;56.064;26.178;2024-01-06T13:34:42;6.47;;;3.20;;
64225;SDS011;50545;56.064;26.178;2024-01-06T13:37:10;6.50;;;3.20;;
64225;SDS011;50545;56.064;26.178;2024-01-06T13:39:38;5.82;;;3.15;;
64225;SDS011;50545;56.064;26.178;2024-01-06T13:42:05;6.57;;;2.90;;
64225;SDS011;50545;56.064;26.178;2024-01-06T13:44:33;5.95;;;2.70;;
64225;SDS011;50545;56.064;26.178;2024-01-06T13:47:00;6.05;;;2.60;;
64225;SDS011;50545;56.064;26.178;2024-01-06T13:49:28;6.57;;;3.20;;
64225;SDS011;50545;56.064;26.178;2024-01-06T13:51:56;6.03;;;2.90;;
64225;SDS011;50545;56.064;26.178;2024-01-06T13:54:24;5.00;;;2.70;;
64225;SDS011;50545;56.064;26.178;2024-01-06T13:56:51;4.53;;;2.28;;
64225;SDS011;50545;56.064;26.178;2024-01-06T13:59:19;5.60;;;2.75;;
64225;SDS011;50545;56.064;26.178;2024-01-06T14:01:46;5.25;;;2.95;;
64225;SDS011;50545;56.064;26.178;2024-01-06T14:04:14;5.03;;;2.50;;
64225;SDS011;50545;56.064;26.178;2024-01-06T14:06:43;4.80;;;2.60;;
64225;SDS011;50545;56.064;26.178;2024-01-06T14:09:14;3.45;;;2.22;;
64225;SDS011;50545;56.064;26.178;2024-01-06T14:11:42;5.63;;;2.60;;
64225;SDS011;50545;56.064;26.178;2024-01-06T14:14:09;4.82;;;2.38;;
64225;SDS011;50545;56.064;26.178;2024-01-06T14:16:37;3.78;;;1.83;;
64225;SDS011;50545;56.064;26.178;2024-01-06T14:19:04;4.40;;;2.50;;
64225;SDS011;50545;56.064;26.178;2024-01-06T14:21:32;5.10;;;2.05;;
64225;SDS011;50545;56.064;26.178;2024-01-06T14:23:59;4.85;;;2.30;;
64225;SDS011;50545;56.064;26.178;2024-01-06T14:26:28;4.80;;;2.38;;
64225;SDS011;50545;56.064;26.178;2024-01-06T14:28:55;5.57;;;2.72;;
64225;SDS011;50545;56.064;26.178;2024-01-06T14:31:24;4.68;;;2.45;;
64225;SDS011;50545;56.064;26.178;2024-01-06T14:33:55;5.45;;;3.00;;
64225;SDS011;50545;56.064;26.178;2024-01-06T14:36:26;5.53;;;2.85;;
64225;SDS011;50545;56.064;26.178;2024-01-06T14:38:54;5.53;;;2.70;;
64225;SDS011;50545;56.064;26.178;2024-01-06T14:41:21;4.78;;;2.72;;
64225;SDS011;50545;56.064;26.178;2024-01-06T14:43:49;5.00;;;2.50;;